Date,TemperatureHighF,TemperatureAvgF,TemperatureLowF,DewpointHighF,DewpointAvgF,DewpointLowF,HumidityHigh,HumidityAvg,HumidityLow,PressureMaxIn,PressureMinIn,WindSpeedMaxMPH,WindSpeedAvgMPH,GustSpeedMaxMPH,PrecipitationSumIn
2013-1-1,31,23,10,27,15,3,88,72,57,29.89,29.62,13,2,17,0.00
2013-1-2,22,9,-2,12,2,-5,92,73,54,30.09,29.87,7,1,12,0.00
2013-1-3,19,5,-8,6,-2,-11,86,73,51,30.12,29.97,7,0,0,0.00
2013-1-4,34,21,-1,26,16,-4,94,81,64,29.97,29.75,12,1,17,0.00
2013-1-5,32,26,12,27,19,10,89,75,56,30.24,29.76,12,1,13,0.00
2013-1-6,32,22,11,26,19,9,93,88,76,30.21,29.92,5,0,0,0.00
2013-1-7,29,21,6,25,17,3,97,83,59,30.38,29.93,10,1,0,0.00
2013-1-8,39,20,2,28,16,0,96,84,57,30.37,30.22,9,1,13,0.00
2013-1-9,35,25,12,29,22,10,94,88,74,30.41,29.92,9,0,0,0.00
2013-1-10,40,34,24,34,28,22,94,78,61,30.52,29.94,10,2,16,0.04
2013-1-11,36,28,16,31,24,15,97,86,63,30.51,30.23,4,0,0,0.12
2013-1-12,38,34,32,37,33,31,99,98,97,30.23,30.11,2,0,0,0.06
2013-1-13,39,35,33,38,34,33,100,99,99,30.14,29.95,3,0,0,0.01
2013-1-14,52,37,30,49,35,28,100,93,65,30.22,29.84,8,1,0,0.01
2013-1-15,37,30,25,29,26,23,96,82,58,30.30,30.21,7,0,0,0.00
2013-1-16,29,28,26,28,26,24,97,93,83,30.25,29.77,4,0,0,0.00
2013-1-17,36,26,17,32,22,5,98,82,58,30.11,29.77,10,1,12,0.00
2013-1-18,17,10,1,6,-1,-7,89,62,42,30.40,30.06,12,1,13,0.00
2013-1-19,34,24,3,26,18,0,93,80,63,30.34,29.84,3,0,0,0.00
2013-1-20,45,31,22,34,22,5,98,71,45,29.86,29.46,22,3,22,0.00
2013-1-21,24,19,12,16,7,1,92,61,42,30.04,29.80,13,2,13,0.00
2013-1-22,22,14,3,15,7,-4,92,76,48,30.04,29.77,11,1,17,0.00
2013-1-23,4,0,-6,-4,-10,-13,82,59,43,30.12,30.02,10,2,14,0.00
2013-1-24,10,2,-5,-5,-10,-14,63,54,40,30.19,30.01,14,3,14,0.00
2013-1-25,17,9,3,2,-3,-6,69,57,41,30.25,30.06,13,2,14,0.00
2013-1-26,19,12,0,4,1,-3,88,63,42,30.17,30.00,7,1,0,0.00
2013-1-27,22,14,9,6,1,-3,68,56,43,30.43,30.16,11,2,13,0.00
2013-1-28,23,16,6,18,9,0,92,75,38,30.43,30.06,3,0,0,0.00
2013-1-29,32,24,8,30,21,6,97,90,79,30.20,30.06,4,0,0,0.00
2013-1-30,38,33,31,38,33,30,100,99,97,30.15,29.40,4,0,0,0.36
2013-1-31,56,41,26,56,34,14,100,80,51,29.47,28.82,22,4,26,0.56
2013-2-1,27,22,14,19,10,4,75,61,48,30.04,29.47,13,2,15,0.00
2013-2-2,23,17,11,14,8,3,79,67,50,30.19,30.03,7,1,0,0.00
2013-2-3,27,22,15,17,15,12,90,75,59,30.04,29.70,9,1,0,0.00
2013-2-4,28,21,15,17,8,-1,91,61,32,29.87,29.67,17,2,19,0.00
2013-2-5,24,15,3,12,4,-1,88,65,40,30.02,29.87,9,1,0,0.00
2013-2-6,34,23,15,25,14,-3,90,72,38,30.29,29.93,11,1,0,0.01
2013-2-7,21,15,10,6,-1,-5,65,50,31,30.53,30.27,7,1,0,0.00
2013-2-8,16,13,10,12,8,-2,92,82,43,30.53,29.83,19,4,19,0.00
2013-2-9,21,15,2,20,14,-1,95,93,89,30.18,29.73,20,2,25,0.00
2013-2-10,30,11,-9,27,9,-11,92,90,86,30.39,30.18,8,1,0,0.00
2013-2-11,30,18,3,29,17,0,99,95,89,30.36,29.61,4,0,0,0.00
2013-2-12,38,33,26,35,32,26,100,97,87,29.80,29.56,9,1,13,0.00
2013-2-13,38,29,21,32,24,19,96,83,55,29.82,29.73,7,1,14,0.00
2013-2-14,37,26,19,25,21,18,95,82,57,29.98,29.70,10,1,0,0.00
2013-2-15,46,29,15,31,24,14,95,83,54,29.97,29.88,6,0,0,0.00
2013-2-16,37,31,27,29,24,10,96,75,47,29.95,29.75,6,1,0,0.01
2013-2-17,27,19,13,17,10,3,89,68,45,29.74,29.32,17,2,17,0.01
2013-2-18,26,17,9,8,2,-3,70,53,33,30.08,29.56,16,4,22,0.00
2013-2-19,39,27,14,32,14,-2,98,60,26,30.14,29.54,7,1,0,0.13
2013-2-20,33,29,22,33,24,15,98,81,65,29.70,29.47,12,2,15,0.05
2013-2-21,26,21,14,17,13,9,89,73,58,30.21,29.68,12,2,16,0.00
2013-2-22,38,23,5,26,16,3,92,78,47,30.42,30.19,7,1,0,0.00
2013-2-23,34,30,24,32,28,22,98,92,83,30.34,29.97,4,0,0,0.01
2013-2-24,32,30,28,31,30,27,98,97,96,29.97,29.76,4,0,0,0.00
2013-2-25,37,30,21,33,29,20,98,95,84,30.23,29.90,4,0,0,0.33
2013-2-26,38,33,29,33,31,28,99,92,80,30.34,30.20,4,0,0,0.04
2013-2-27,34,32,30,34,31,29,99,96,90,30.20,29.64,10,2,13,0.14
2013-2-28,41,34,30,38,33,29,99,96,87,29.64,29.53,5,0,0,0.01
2013-3-1,36,33,28,32,30,28,99,92,80,29.66,29.53,8,0,0,0.00
2013-3-2,40,33,27,31,29,26,97,85,64,29.66,29.59,8,1,12,0.01
2013-3-3,38,32,28,32,28,25,95,88,76,29.63,29.54,5,0,0,0.13
2013-3-4,34,29,25,26,23,21,85,79,68,29.75,29.54,16,2,16,0.00
2013-3-5,42,32,24,33,27,21,96,81,62,30.09,29.75,9,1,0,0.00
2013-3-6,36,34,30,33,30,27,96,87,72,30.21,30.09,12,3,16,0.02
2013-3-7,34,31,29,28,26,24,92,82,72,30.18,30.07,18,4,19,0.00
2013-3-8,47,36,28,27,23,18,94,63,32,30.20,30.02,18,3,19,0.02
2013-3-9,54,33,19,29,21,7,94,68,16,30.36,30.18,7,1,0,0.00
2013-3-10,44,32,19,31,26,17,95,80,51,30.41,30.28,7,1,0,0.00
2013-3-11,48,36,28,34,30,27,97,82,49,30.31,30.12,8,1,0,0.00
2013-3-12,45,37,31,45,36,30,100,98,94,30.13,29.70,7,1,0,0.47
2013-3-13,45,37,27,40,34,26,100,89,60,29.75,29.67,9,1,13,0.01
2013-3-14,35,27,18,26,20,6,97,76,57,29.78,29.63,11,2,15,0.00
2013-3-15,35,24,15,28,14,4,96,67,39,29.81,29.60,13,2,14,0.00
2013-3-16,32,25,17,24,16,12,95,72,47,29.88,29.65,8,1,0,0.07
2013-3-17,30,21,11,16,9,0,92,62,37,30.30,29.88,13,2,19,0.00
2013-3-18,34,20,1,21,6,-2,90,61,23,30.44,30.25,8,1,0,0.00
2013-3-19,31,27,22,30,25,20,96,93,71,30.25,29.70,10,1,13,0.00
2013-3-20,34,26,19,27,22,18,97,82,62,29.74,29.65,10,2,15,0.13
2013-3-21,37,25,8,24,16,5,94,73,38,29.77,29.59,8,1,0,0.41
2013-3-22,37,26,15,24,18,13,93,75,46,29.68,29.60,10,1,0,0.02
2013-3-23,38,30,20,26,22,17,90,74,53,29.72,29.56,13,2,19,0.00
2013-3-24,43,34,24,28,25,22,90,70,46,29.80,29.70,10,2,14,0.00
2013-3-25,42,30,17,31,25,16,94,82,59,29.78,29.57,10,1,14,0.00
2013-3-26,47,36,27,29,24,19,88,64,36,29.76,29.57,9,1,12,0.00
2013-3-27,49,34,21,33,27,19,97,77,45,29.88,29.73,9,1,13,0.01
2013-3-28,45,36,30,37,32,28,99,87,60,30.00,29.88,5,0,0,0.02
2013-3-29,50,38,30,37,32,28,98,81,55,30.03,29.96,10,1,14,0.00
2013-3-30,51,37,26,33,27,17,97,70,28,30.09,29.99,10,1,13,0.00
2013-3-31,54,37,20,37,25,19,96,69,30,30.11,29.80,8,1,0,0.01
2013-4-1,52,39,30,43,34,17,99,85,50,29.80,29.46,16,2,16,0.42
2013-4-2,36,30,24,19,14,10,63,52,38,29.84,29.71,18,3,22,0.00
2013-4-3,42,33,25,21,14,8,68,48,26,30.09,29.83,15,3,19,0.00
2013-4-4,51,36,25,27,18,11,86,51,22,30.23,29.96,11,2,15,0.00
2013-4-5,57,39,29,30,26,19,90,63,31,29.96,29.65,10,1,13,0.00
2013-4-6,40,31,24,20,11,2,76,45,23,30.33,29.85,13,2,15,0.00
2013-4-7,54,38,22,36,24,16,84,61,30,30.32,29.93,12,2,14,0.00
2013-4-8,58,43,30,39,34,29,98,73,41,30.11,29.90,10,1,12,0.00
2013-4-9,55,42,35,48,40,32,99,91,68,30.09,29.88,9,1,12,0.29
2013-4-10,56,46,39,49,43,38,100,90,68,29.98,29.86,7,0,0,0.70
2013-4-11,49,43,37,43,36,25,99,79,49,30.17,29.85,9,0,0,0.06
2013-4-12,38,33,30,31,27,18,97,81,47,30.22,29.86,6,1,0,0.02
2013-4-13,49,37,31,40,34,30,98,90,66,29.91,29.78,8,1,0,0.43
2013-4-14,53,39,29,40,34,28,99,83,48,30.20,29.88,10,1,13,0.00
2013-4-15,56,40,25,36,30,24,98,74,37,30.39,30.20,8,1,0,0.00
2013-4-16,63,46,29,52,41,28,99,82,50,30.39,29.97,12,2,14,0.04
2013-4-17,62,50,32,53,37,30,93,64,35,30.33,29.97,11,2,15,0.00
2013-4-18,56,43,27,40,32,24,96,67,39,30.45,30.12,9,2,12,0.00
2013-4-19,73,60,49,61,54,36,95,80,58,30.13,29.56,14,2,22,0.02
2013-4-20,63,48,38,61,38,23,95,69,43,30.17,29.57,14,2,17,0.32
2013-4-21,50,38,27,29,23,18,88,56,30,30.69,30.17,10,2,13,0.00
2013-4-22,51,37,25,31,24,16,94,65,26,30.78,30.63,10,2,13,0.00
2013-4-23,40,35,27,39,33,26,97,93,85,30.63,30.18,8,1,0,0.00
2013-4-24,71,53,40,55,46,39,98,82,42,30.18,29.72,8,1,0,0.00
2013-4-25,59,51,32,50,37,27,91,60,31,30.28,29.72,12,2,18,0.00
2013-4-26,59,43,27,40,32,26,96,69,35,30.42,30.28,8,1,0,0.00
2013-4-27,64,47,29,42,34,27,99,69,27,30.42,30.25,9,1,0,0.00
2013-4-28,68,49,30,44,36,29,98,68,31,30.33,30.19,10,1,0,0.00
2013-4-29,70,50,34,48,39,33,98,70,36,30.25,30.14,10,1,0,0.00
2013-4-30,71,53,36,45,38,33,97,63,30,30.36,30.23,9,1,0,0.00
2013-5-1,73,52,30,42,36,27,95,62,22,30.45,30.36,8,1,0,0.00
2013-5-2,76,49,35,47,38,29,98,70,26,30.51,30.35,13,1,15,0.00
2013-5-3,65,48,30,49,40,29,99,76,48,30.53,30.37,11,1,0,0.00
2013-5-4,70,50,34,45,39,30,100,71,26,30.38,30.24,9,1,0,0.00
2013-5-5,68,48,29,44,37,29,99,72,32,30.33,30.20,9,1,0,0.00
2013-5-6,72,51,30,48,39,30,99,71,27,30.25,30.11,6,1,0,0.00
2013-5-7,79,58,36,55,47,35,99,73,28,30.15,30.04,7,1,0,0.00
2013-5-8,75,60,45,63,55,45,100,85,52,30.20,30.06,8,1,13,0.06
2013-5-9,67,58,53,61,57,53,100,97,76,30.05,29.87,5,0,0,0.34
2013-5-10,75,62,53,63,57,53,100,87,52,29.93,29.86,6,0,0,0.00
2013-5-11,68,59,54,64,58,53,100,98,85,29.87,29.65,5,0,0,0.45
2013-5-12,67,56,46,57,50,32,100,80,49,29.74,29.52,9,1,14,0.06
2013-5-13,53,46,40,38,33,29,85,61,42,30.02,29.74,12,2,18,0.00
2013-5-14,58,46,34,37,33,27,95,66,34,30.03,29.93,9,1,17,0.00
2013-5-15,65,46,28,50,38,27,100,80,34,30.04,29.65,8,1,0,0.13
2013-5-16,75,59,46,53,47,38,100,70,26,29.79,29.57,10,1,16,0.00
2013-5-17,65,54,44,47,42,36,92,69,37,30.20,29.79,7,1,12,0.00
2013-5-18,68,53,38,49,44,38,99,76,35,30.30,30.20,6,1,0,0.00
2013-5-19,61,52,47,54,49,45,99,89,75,30.35,30.20,5,0,0,0.14
2013-5-20,72,59,50,65,57,50,100,94,77,30.20,29.93,7,0,0,0.26
2013-5-21,58,53,49,58,53,48,100,98,95,30.12,29.92,7,0,0,0.36
2013-5-22,58,53,49,56,52,49,100,98,92,30.01,29.89,3,0,0,0.46
2013-5-23,68,58,49,67,58,49,100,98,92,29.94,29.75,5,0,15,0.08
2013-5-24,68,60,48,67,59,47,100,95,81,29.83,29.61,5,0,0,0.55
2013-5-25,49,46,39,48,46,38,100,98,94,29.83,29.69,6,1,16,0.98
2013-5-26,55,46,39,47,42,38,100,87,66,30.02,29.66,8,1,0,0.11
2013-5-27,66,50,36,47,41,35,99,74,35,30.18,30.02,8,1,18,0.00
2013-5-28,70,52,34,51,42,33,99,73,35,30.25,30.15,7,0,0,0.00
2013-5-29,57,52,45,56,51,44,99,97,93,30.17,29.99,3,0,0,0.16
2013-5-30,82,67,55,72,62,55,100,87,53,30.04,29.97,9,0,0,0.00
2013-5-31,88,71,54,71,63,54,100,81,48,30.06,29.87,7,0,0,0.00
2013-6-1,90,73,58,74,66,58,100,81,45,29.92,29.78,5,0,0,0.00
2013-6-2,89,72,63,76,67,63,100,87,51,29.80,29.60,15,0,32,0.51
2013-6-3,77,66,56,68,62,53,100,88,54,29.78,29.68,7,0,0,0.01
2013-6-4,62,54,44,53,47,43,99,78,53,30.07,29.77,9,1,0,0.00
2013-6-5,69,56,42,54,46,37,100,73,31,30.16,30.06,8,0,0,0.00
2013-6-6,72,59,49,56,50,42,96,73,41,30.19,30.09,5,0,0,0.00
2013-6-7,56,52,50,53,51,47,99,95,82,30.11,29.90,5,0,0,0.65
2013-6-8,70,59,51,63,56,50,100,93,76,29.98,29.67,8,1,16,0.71
2013-6-9,74,61,49,62,56,48,100,84,54,30.15,29.98,8,0,0,0.00
2013-6-10,68,58,46,61,55,46,100,90,73,30.19,30.02,3,0,0,0.15
2013-6-11,59,55,53,57,54,52,100,97,91,30.03,29.57,5,0,0,0.91
2013-6-12,61,57,53,60,56,53,100,96,84,29.80,29.54,7,0,0,0.16
2013-6-13,66,57,45,60,54,45,100,91,62,29.80,29.70,3,0,0,0.07
2013-6-14,73,60,52,61,56,50,100,87,47,29.75,29.66,8,0,0,0.00
2013-6-15,74,59,46,55,50,43,100,76,37,29.90,29.75,9,0,0,0.00
2013-6-16,72,58,44,62,54,44,100,88,53,29.91,29.69,6,0,0,0.00
2013-6-17,80,63,50,66,58,49,100,86,47,29.86,29.73,7,0,0,0.01
2013-6-18,62,58,52,59,56,52,100,96,82,29.96,29.85,4,0,0,0.08
2013-6-19,71,58,44,59,51,44,100,80,46,30.14,29.92,7,0,0,0.01
2013-6-20,73,58,42,59,50,41,100,79,45,30.25,30.14,7,0,0,0.00
2013-6-21,78,63,48,64,55,48,99,80,43,30.23,30.16,7,0,0,0.00
2013-6-22,80,66,54,71,62,53,100,91,64,30.20,30.07,7,0,0,0.02
2013-6-23,81,69,61,76,68,61,100,96,78,30.11,29.92,8,0,0,0.91
2013-6-24,86,72,63,76,69,63,100,92,58,29.96,29.82,7,0,0,0.16
2013-6-25,86,73,66,76,70,66,100,91,62,29.88,29.68,8,0,12,0.08
2013-6-26,74,67,60,72,67,60,100,99,85,29.85,29.67,3,0,0,0.18
2013-6-27,70,63,58,68,62,58,100,97,91,29.84,29.75,3,0,0,0.07
2013-6-28,64,60,56,63,59,56,100,100,96,29.78,29.49,5,0,0,1.43
2013-6-29,81,69,62,75,67,62,100,94,72,29.66,29.50,6,0,0,0.59
2013-6-30,81,70,62,75,68,62,100,95,74,29.90,29.66,11,0,16,0.63
2013-7-1,74,70,65,74,69,64,100,99,93,30.04,29.89,3,0,0,0.30
2013-7-2,70,63,59,70,63,59,100,100,99,30.19,30.03,8,0,0,0.32
2013-7-3,84,70,60,78,68,60,100,95,78,30.18,30.06,7,0,0,0.10
2013-7-4,88,75,64,79,72,64,100,91,65,30.15,30.01,5,0,0,0.00
2013-7-5,89,77,67,80,73,67,100,88,65,30.10,29.95,7,0,0,0.00
2013-7-6,85,75,66,75,71,65,100,88,65,30.01,29.91,7,0,0,0.00
2013-7-7,83,71,62,75,68,62,100,92,66,29.97,29.87,6,0,0,0.06
2013-7-8,78,70,63,74,69,63,100,97,86,30.04,29.87,4,0,0,0.89
2013-7-9,70,67,63,70,66,63,100,98,92,30.09,30.03,2,0,0,0.06
2013-7-10,70,66,64,70,66,64,100,100,98,30.05,29.75,2,0,0,0.34
2013-7-11,79,71,67,75,70,62,100,96,75,29.93,29.72,8,0,0,0.02
2013-7-12,78,68,59,69,62,58,100,83,58,30.19,29.93,5,0,0,0.00
2013-7-13,78,67,55,71,64,55,100,90,59,30.29,30.19,4,0,0,0.00
2013-7-14,81,72,63,75,70,63,100,93,76,30.27,30.16,4,0,0,0.00
2013-7-15,87,74,63,78,69,63,100,88,56,30.18,30.05,7,0,0,0.00
2013-7-16,88,73,62,78,70,62,100,90,59,30.14,30.08,4,0,0,0.00
2013-7-17,89,76,64,78,71,64,100,87,59,30.14,29.92,8,0,0,0.36
2013-7-18,87,74,66,78,72,66,100,94,64,29.99,29.90,5,0,0,0.27
2013-7-19,90,77,67,80,73,66,100,89,62,29.91,29.63,10,1,0,0.00
2013-7-20,85,74,65,74,70,65,100,89,64,29.75,29.58,8,0,12,0.05
2013-7-21,78,67,59,69,64,58,100,89,60,29.98,29.75,6,0,0,0.00
2013-7-22,71,65,59,70,65,59,100,98,94,30.02,29.89,3,0,0,0.24
2013-7-23,69,64,60,69,64,60,100,100,99,29.90,29.52,5,0,0,2.30
2013-7-24,78,67,52,73,63,51,100,89,68,29.96,29.55,7,0,0,0.01
2013-7-25,70,60,48,63,56,48,100,89,66,30.10,29.96,5,0,0,0.00
2013-7-26,75,64,60,67,63,60,100,96,82,30.08,29.91,8,0,0,0.15
2013-7-27,80,67,57,69,63,57,100,88,51,30.01,29.93,7,0,0,0.01
2013-7-28,78,66,57,71,64,57,100,94,71,30.00,29.96,5,0,0,0.02
2013-7-29,80,67,60,72,65,60,100,95,70,30.02,29.92,5,0,0,1.47
2013-7-30,75,65,56,66,60,55,100,88,55,30.07,30.00,9,0,0,0.01
2013-7-31,78,64,51,66,59,51,100,85,45,30.11,30.01,7,0,0,0.00
2013-8-1,79,65,54,69,62,54,100,92,61,30.02,29.84,6,0,0,0.29
2013-8-2,78,67,58,70,64,58,100,91,59,29.84,29.72,9,0,0,0.34
2013-8-3,75,66,55,65,60,55,100,84,57,29.81,29.72,12,1,12,0.01
2013-8-4,75,61,51,63,57,51,100,87,60,29.85,29.75,14,0,14,0.00
2013-8-5,71,59,47,57,51,45,98,77,47,30.04,29.84,7,0,0,0.00
2013-8-6,74,59,44,62,53,43,100,83,46,30.14,30.03,6,0,0,0.00
2013-8-7,76,61,47,66,56,47,100,85,55,30.17,30.08,7,0,0,0.00
2013-8-8,79,67,57,74,65,56,100,95,75,30.09,29.96,5,0,0,0.07
2013-8-9,72,70,66,72,70,66,100,100,100,29.98,29.69,6,0,0,1.20
2013-8-10,75,65,51,67,60,51,100,86,49,29.99,29.74,10,0,0,0.00
2013-8-11,74,60,48,61,55,48,100,85,52,30.05,29.97,5,0,0,0.00
2013-8-12,76,63,52,66,58,51,100,86,56,30.00,29.88,10,0,0,0.00
2013-8-13,68,62,55,68,62,55,100,99,90,29.90,29.66,3,0,0,0.79
2013-8-14,71,63,53,64,58,52,100,86,60,29.90,29.62,12,1,12,0.00
2013-8-15,72,59,49,60,54,49,100,85,55,30.08,29.90,8,0,0,0.00
2013-8-16,74,60,49,63,55,48,100,86,54,30.17,30.07,7,0,0,0.00
2013-8-17,76,62,50,64,56,49,100,86,51,30.26,30.17,9,0,0,0.00
2013-8-18,74,62,52,67,60,51,100,91,69,30.26,30.05,7,0,0,0.00
2013-8-19,78,65,52,68,61,52,100,88,61,30.05,29.90,8,0,0,0.00
2013-8-20,80,66,55,70,62,55,100,88,57,30.06,29.94,9,0,0,0.00
2013-8-21,82,68,56,71,64,56,100,89,59,30.12,29.97,8,0,0,0.00
2013-8-22,84,70,57,72,66,57,100,87,57,29.99,29.75,10,0,0,0.00
2013-8-23,76,65,50,67,58,48,99,80,42,30.13,29.77,8,0,0,0.00
2013-8-24,66,52,46,57,50,46,99,94,67,30.32,30.13,1,0,0,0.00
2013-8-25,76,60,45,64,55,45,100,85,51,30.36,30.13,7,0,0,0.00
2013-8-26,75,66,58,70,64,57,100,96,81,30.13,29.84,8,0,0,0.12
2013-8-27,65,62,60,65,62,60,100,100,100,29.86,29.82,0,0,0,0.00
2013-11-25,27,27,26,18,17,17,68,67,66,30.25,30.21,4,0,0,0.00
2013-11-26,33,29,26,30,26,17,97,88,67,30.30,30.10,5,0,0,0.01
2013-11-27,44,36,31,44,36,30,100,99,96,30.09,29.20,9,1,0,1.24
2013-11-28,33,26,17,31,17,8,96,70,49,30.39,29.32,15,2,15,0.00
2013-11-29,27,17,7,13,10,4,91,74,46,30.75,30.38,10,1,0,0.00
2013-11-30,29,16,3,21,11,1,91,79,51,30.82,30.43,6,1,0,0.01
2013-12-1,34,30,25,32,28,21,98,92,81,30.43,30.03,5,0,0,0.03
2013-12-2,39,34,32,37,34,32,98,97,92,30.04,29.90,7,0,0,0.01
2013-12-3,39,32,24,37,31,23,100,97,93,29.92,29.85,2,0,0,0.00
2013-12-4,39,29,22,31,14,-100,98,90,73,30.19,29.91,6,0,0,0.01
2013-12-5,34,32,24,34,30,23,100,96,87,30.23,29.89,6,0,0,0.08
2013-12-6,43,37,32,42,34,26,100,90,68,30.11,29.83,5,1,0,0.06
2013-12-7,36,30,22,31,23,14,97,76,53,30.41,30.06,11,1,0,0.01
2013-12-8,28,22,15,18,14,12,91,72,51,30.56,30.41,7,0,0,0.00
2013-12-9,26,23,20,25,20,12,97,86,61,30.51,29.84,8,1,0,0.00
2013-12-10,33,26,18,30,24,14,99,89,74,29.91,29.74,8,1,0,0.00
2013-12-11,28,22,17,20,15,13,91,75,57,30.12,29.91,18,2,18,0.00
2013-12-12,20,10,3,16,4,-1,92,76,49,30.26,29.99,8,1,0,0.00
2013-12-13,22,11,-3,15,4,-6,91,74,53,30.39,29.92,9,1,0,0.00
2013-12-14,13,6,-5,6,-2,-7,89,71,44,30.61,30.31,8,1,0,0.00
2013-12-15,25,16,8,24,15,6,96,93,89,30.30,29.45,21,3,21,0.00
2013-12-16,23,14,4,18,9,-2,95,83,61,30.19,29.65,15,2,15,0.01
2013-12-17,11,2,-14,9,-1,-16,92,84,67,30.29,30.03,6,0,0,0.00
2013-12-18,30,17,9,22,14,7,94,89,70,30.04,29.86,7,1,0,0.00
2013-12-19,34,22,12,27,19,11,97,89,67,30.08,29.92,9,0,0,0.00
2013-12-20,35,30,23,34,29,22,99,96,93,30.11,29.89,2,0,0,0.01
2013-12-21,40,34,32,38,33,31,100,98,91,29.92,29.82,4,0,0,0.09
2013-12-22,37,31,28,37,31,27,100,98,97,30.06,29.82,9,1,0,0.36
2013-12-23,32,30,27,32,30,27,100,99,98,30.10,29.96,4,0,0,0.26
2013-12-24,32,25,14,32,23,11,100,93,79,30.18,30.03,6,1,0,0.00
2013-12-25,17,9,4,11,5,0,92,83,67,30.54,30.18,7,1,0,0.00
2013-12-26,24,15,6,22,13,4,95,93,90,30.50,30.09,2,0,0,0.00
2013-12-27,31,16,6,26,14,4,98,90,71,30.23,30.15,7,0,0,0.09
2013-12-28,36,24,8,33,22,6,98,93,84,30.18,29.95,6,0,0,0.02
2013-12-29,34,29,21,33,28,20,99,97,90,30.00,29.53,2,0,0,0.08
2013-12-30,33,24,4,33,22,1,100,92,80,30.15,29.51,7,1,0,0.00
2013-12-31,13,2,-7,8,-1,-9,91,85,65,30.15,30.02,5,0,0,0.00
2014-1-1,18,5,-8,11,1,-10,92,84,67,30.40,30.14,9,1,0,0.00
2014-1-2,9,3,-4,7,0,-6,92,88,85,30.39,29.97,11,2,0,0.00